Time;durP1;ratioP1;P1;durP2;ratioP2;P2;SDS_P1;SDS_P2;PMS_P1;PMS_P2;Temp;Humidity;BMP_temperature;BMP_pressure;BME280_temperature;BME280_humidity;BME280_pressure;Samples;Min_cycle;Max_cycle;Signal;HPM_P1;HPM_P2
2023/05/18 00:00:58;;;;;;;9.38;2.88;;;;;;;8.21;100.00;102710.34;5278677;28;20024;-73
2023/05/18 00:03:32;;;;;;;13.98;3.75;;;;;;;8.14;100.00;102716.94;5277839;28;20035;-73
2023/05/18 00:06:06;;;;;;;10.02;2.83;;;;;;;8.23;100.00;102715.59;5283982;28;20087;-72
2023/05/18 00:08:37;;;;;;;8.15;2.80;;;;;;;8.17;100.00;102703.50;5276273;28;20058;-72
2023/05/18 00:11:08;;;;;;;9.90;2.90;;;;;;;8.17;100.00;102703.50;5282049;28;20318;-72
2023/05/18 00:13:40;;;;;;;11.07;3.38;;;;;;;8.17;100.00;102708.81;5279515;28;20080;-72
2023/05/18 00:16:12;;;;;;;10.95;3.17;;;;;;;8.09;100.00;102717.16;5280656;28;20039;-72
2023/05/18 00:18:43;;;;;;;8.60;2.90;;;;;;;8.08;100.00;102711.94;5279057;28;20019;-72
2023/05/18 00:21:15;;;;;;;8.32;2.95;;;;;;;8.04;100.00;102700.59;5279577;28;20033;-73
2023/05/18 00:23:49;;;;;;;8.57;3.13;;;;;;;7.99;100.00;102715.06;5277178;28;20028;-73
2023/05/18 00:26:20;;;;;;;10.20;2.80;;;;;;;7.95;100.00;102709.06;5279640;28;20081;-73
2023/05/18 00:28:52;;;;;;;11.13;3.45;;;;;;;7.86;100.00;102713.06;5279368;28;20437;-72
2023/05/18 00:31:23;;;;;;;10.23;3.20;;;;;;;7.97;100.00;102717.81;5282717;28;20024;-73
2023/05/18 00:33:54;;;;;;;8.95;3.05;;;;;;;7.88;100.00;102719.16;5277310;28;20518;-72
2023/05/18 00:36:26;;;;;;;11.85;3.00;;;;;;;7.89;100.00;102718.22;5279536;28;20019;-72
2023/05/18 00:38:58;;;;;;;9.38;3.20;;;;;;;7.77;100.00;102721.50;5279793;28;20028;-72
2023/05/18 00:41:30;;;;;;;11.07;3.17;;;;;;;7.76;100.00;102720.63;5283018;28;20032;-73
2023/05/18 00:44:03;;;;;;;10.32;3.63;;;;;;;7.71;100.00;102717.38;5275743;28;20233;-72
2023/05/18 00:46:35;;;;;;;15.63;5.10;;;;;;;7.69;100.00;102719.22;5281221;28;20028;-72
2023/05/18 00:49:06;;;;;;;11.60;2.97;;;;;;;7.64;100.00;102723.06;5285135;28;20052;-73
2023/05/18 00:51:39;;;;;;;7.45;2.97;;;;;;;7.66;100.00;102719.41;5277812;28;20497;-72
2023/05/18 00:54:11;;;;;;;8.55;3.35;;;;;;;7.57;100.00;102725.16;5280780;28;20048;-73
2023/05/18 00:56:45;;;;;;;8.52;2.90;;;;;;;7.58;100.00;102718.91;5276814;28;20115;-72
2023/05/18 00:59:17;;;;;;;9.30;3.00;;;;;;;7.46;100.00;102717.72;5284703;28;20048;-72
2023/05/18 01:01:49;;;;;;;14.68;3.40;;;;;;;7.51;100.00;102720.16;5279187;28;20516;-72
2023/05/18 01:04:23;;;;;;;9.90;3.22;;;;;;;7.51;100.00;102723.66;5283373;28;20027;-72
2023/05/18 01:06:55;;;;;;;8.63;3.63;;;;;;;7.45;100.00;102717.78;5281751;28;20035;-72
2023/05/18 01:09:26;;;;;;;9.80;3.60;;;;;;;7.42;100.00;102729.44;5277467;28;20386;-72
2023/05/18 01:12:20;;;;;;;8.02;3.78;;;;;;;7.50;100.00;102724.63;5281424;28;20485;-72
2023/05/18 01:14:58;;;;;;;11.02;3.45;;;;;;;7.41;100.00;102727.72;5278441;28;20040;-73
2023/05/18 01:17:50;;;;;;;9.35;4.05;;;;;;;7.33;100.00;102727.25;5281281;28;20020;-72
2023/05/18 01:20:40;;;;;;;10.55;3.17;;;;;;;7.34;100.00;102727.16;5278316;28;20040;-72
2023/05/18 01:23:44;;;;;;;9.68;3.50;;;;;;;7.35;100.00;102730.69;5281281;28;20024;-72
2023/05/18 01:26:30;;;;;;;9.88;3.35;;;;;;;7.29;100.00;102721.22;5282320;28;20027;-73
2023/05/18 01:29:05;;;;;;;8.27;3.10;;;;;;;7.22;100.00;102727.75;5282068;28;20047;-72
2023/05/18 01:31:37;;;;;;;9.85;3.60;;;;;;;7.21;100.00;102734.00;5277150;28;20478;-71
2023/05/18 01:34:08;;;;;;;7.85;3.10;;;;;;;7.16;100.00;102726.25;5284722;28;20024;-71
2023/05/18 01:36:40;;;;;;;7.93;2.97;;;;;;;7.14;100.00;102727.28;5282522;28;20035;-71
2023/05/18 01:39:12;;;;;;;11.65;3.38;;;;;;;7.17;100.00;102725.34;5279186;28;20374;-71
2023/05/18 01:42:11;;;;;;;11.90;3.75;;;;;;;7.18;100.00;102723.53;5281096;28;20444;-71
2023/05/18 01:44:52;;;;;;;8.20;3.13;;;;;;;7.13;100.00;102726.41;5277317;28;20064;-71
2023/05/18 01:47:25;;;;;;;7.35;3.08;;;;;;;7.12;100.00;102727.34;5282354;28;20028;-71
2023/05/18 01:50:08;;;;;;;14.30;3.60;;;;;;;7.05;100.00;102720.63;5286770;28;20036;-71
2023/05/18 01:52:52;;;;;;;7.13;3.42;;;;;;;7.06;100.00;102737.41;5280753;28;20074;-71
2023/05/18 01:55:28;;;;;;;9.90;3.58;;;;;;;6.95;100.00;102728.16;5286781;28;20024;-71
2023/05/18 01:58:01;;;;;;;10.07;3.55;;;;;;;6.92;100.00;102736.25;5284735;28;20039;-71
2023/05/18 02:00:33;;;;;;;8.60;3.97;;;;;;;6.85;100.00;102726.00;5284461;28;20485;-72
2023/05/18 02:03:05;;;;;;;10.35;3.40;;;;;;;6.89;100.00;102731.09;5283842;28;20505;-71
2023/05/18 02:05:36;;;;;;;11.05;3.22;;;;;;;6.79;100.00;102724.50;5281195;28;20059;-71
2023/05/18 02:08:08;;;;;;;10.23;3.47;;;;;;;6.83;100.00;102720.78;5282059;28;20111;-71
2023/05/18 02:10:39;;;;;;;14.65;4.68;;;;;;;6.78;100.00;102714.81;5286510;28;20024;-71
2023/05/18 02:13:10;;;;;;;8.55;3.90;;;;;;;6.81;100.00;102717.34;5283103;28;20032;-72
2023/05/18 02:15:43;;;;;;;9.88;3.47;;;;;;;6.83;100.00;102715.47;5281447;28;20367;-72
2023/05/18 02:18:15;;;;;;;9.15;3.33;;;;;;;6.83;100.00;102712.81;5281876;28;20024;-72
2023/05/18 02:20:47;;;;;;;12.10;3.72;;;;;;;6.74;100.00;102714.09;5282739;28;20081;-72
2023/05/18 02:23:19;;;;;;;7.78;3.30;;;;;;;6.74;100.00;102708.81;5282708;28;20025;-72
2023/05/18 02:25:50;;;;;;;12.32;4.15;;;;;;;6.77;100.00;102718.41;5281901;28;20444;-72
2023/05/18 02:28:22;;;;;;;13.02;3.67;;;;;;;6.78;100.00;102707.75;5285394;28;20113;-72
2023/05/18 02:30:53;;;;;;;10.50;3.97;;;;;;;6.75;100.00;102701.69;5279500;28;20533;-72
2023/05/18 02:33:25;;;;;;;8.13;3.53;;;;;;;6.76;100.00;102698.97;5286124;28;20108;-71
2023/05/18 02:35:56;;;;;;;8.00;3.38;;;;;;;6.76;100.00;102704.28;5283063;28;20559;-71
2023/05/18 02:38:27;;;;;;;9.48;3.70;;;;;;;6.80;100.00;102711.19;5290772;28;20093;-71
2023/05/18 02:40:58;;;;;;;10.30;3.58;;;;;;;6.71;100.00;102703.63;5280052;28;20032;-71
2023/05/18 02:43:30;;;;;;;7.47;3.38;;;;;;;6.70;100.00;102699.28;5288820;28;20056;-71
2023/05/18 02:46:03;;;;;;;13.88;3.60;;;;;;;6.68;100.00;102703.78;5284799;28;20566;-71
2023/05/18 02:48:34;;;;;;;11.85;3.50;;;;;;;6.65;100.00;102695.13;5285639;28;20032;-70
2023/05/18 02:51:05;;;;;;;11.20;3.40;;;;;;;6.65;100.00;102698.63;5284412;28;20028;-71
2023/05/18 02:53:37;;;;;;;9.45;3.60;;;;;;;6.65;100.00;102700.44;5286099;28;20541;-71
2023/05/18 02:56:08;;;;;;;8.80;3.38;;;;;;;6.57;100.00;102703.41;5280256;28;20037;-71
2023/05/18 02:58:42;;;;;;;12.70;3.75;;;;;;;6.52;100.00;102702.78;5282116;28;20064;-71
2023/05/18 03:01:13;;;;;;;12.23;4.15;;;;;;;6.51;100.00;102701.91;5289962;28;20073;-71
2023/05/18 03:03:46;;;;;;;7.20;3.63;;;;;;;6.52;100.00;102702.78;5282981;28;20032;-71
2023/05/18 03:06:22;;;;;;;12.25;4.18;;;;;;;6.53;100.00;102704.50;5292859;28;20454;-72
2023/05/18 03:08:53;;;;;;;9.80;3.90;;;;;;;6.60;100.00;102703.28;5280080;28;20562;-72
2023/05/18 03:11:27;;;;;;;10.38;3.92;;;;;;;6.53;100.00;102713.31;5278903;28;20108;-71
2023/05/18 03:13:58;;;;;;;6.80;3.28;;;;;;;6.58;100.00;102707.81;5280758;28;20560;-72
2023/05/18 03:16:30;;;;;;;8.32;3.78;;;;;;;6.44;100.00;102703.97;5281776;28;20079;-71
2023/05/18 03:19:01;;;;;;;9.10;3.47;;;;;;;6.42;100.00;102703.19;5279315;28;20624;-72
2023/05/18 03:21:34;;;;;;;9.90;4.10;;;;;;;6.43;100.00;102707.59;5281409;28;20080;-71
2023/05/18 03:24:06;;;;;;;6.95;3.47;;;;;;;6.40;100.00;102707.72;5286958;28;20030;-72
2023/05/18 03:26:38;;;;;;;11.77;3.45;;;;;;;6.42;100.00;102705.84;5278448;28;20024;-72
2023/05/18 03:29:12;;;;;;;9.88;4.22;;;;;;;6.41;100.00;102711.22;5278704;28;20036;-72
2023/05/18 03:31:43;;;;;;;13.30;3.60;;;;;;;6.34;100.00;102707.97;5288255;28;20032;-72
2023/05/18 03:34:14;;;;;;;15.48;4.22;;;;;;;6.41;100.00;102708.56;5284836;28;20032;-72
2023/05/18 03:36:46;;;;;;;11.45;4.30;;;;;;;6.30;100.00;102703.75;5278454;28;20425;-72
2023/05/18 03:39:17;;;;;;;10.70;3.55;;;;;;;6.27;100.00;102710.97;5281224;28;20028;-72
2023/05/18 03:41:48;;;;;;;8.55;3.45;;;;;;;6.27;100.00;102705.69;5289973;28;20032;-72
2023/05/18 03:44:20;;;;;;;6.93;3.40;;;;;;;6.23;100.00;102702.31;5288929;28;20094;-71
2023/05/18 03:46:52;;;;;;;6.85;3.38;;;;;;;6.29;100.00;102699.38;5281210;28;20060;-72
2023/05/18 03:49:23;;;;;;;7.50;3.05;;;;;;;6.22;100.00;102703.22;5282363;28;20131;-72
2023/05/18 03:51:55;;;;;;;14.85;3.80;;;;;;;6.21;100.00;102704.19;5281010;28;20032;-70
2023/05/18 03:54:26;;;;;;;11.10;3.92;;;;;;;6.16;100.00;102706.16;5284457;28;20076;-71
2023/05/18 03:56:58;;;;;;;10.48;3.90;;;;;;;6.16;100.00;102706.16;5277753;28;20393;-67
2023/05/18 03:59:29;;;;;;;10.13;3.97;;;;;;;6.16;100.00;102709.66;5282520;28;20028;-66
2023/05/18 04:02:00;;;;;;;11.68;4.25;;;;;;;6.17;100.00;102705.22;5287749;28;20024;-66
2023/05/18 04:04:32;;;;;;;11.15;4.57;;;;;;;6.19;100.00;102714.84;5282375;28;20055;-66
2023/05/18 04:07:04;;;;;;;10.40;4.10;;;;;;;6.20;100.00;102711.25;5278780;28;20051;-67
2023/05/18 04:09:36;;;;;;;8.90;4.05;;;;;;;6.18;100.00;102713.09;5278693;28;20058;-67
2023/05/18 04:12:07;;;;;;;11.73;4.35;;;;;;;6.22;100.00;102722.66;5278530;28;20028;-67
2023/05/18 04:14:41;;;;;;;10.27;4.95;;;;;;;6.21;100.00;102725.38;5288247;28;20028;-67
2023/05/18 04:17:12;;;;;;;11.57;4.35;;;;;;;6.17;100.00;102721.13;5280479;28;20057;-67
2023/05/18 04:19:43;;;;;;;10.07;4.60;;;;;;;6.19;100.00;102724.59;5281215;28;20062;-66
2023/05/18 04:22:15;;;;;;;11.43;4.60;;;;;;;6.19;100.00;102721.94;5286666;28;20054;-67
2023/05/18 04:24:47;;;;;;;9.13;4.00;;;;;;;6.18;100.00;102728.16;5283381;28;20474;-67
2023/05/18 04:27:19;;;;;;;6.65;3.35;;;;;;;6.24;100.00;102731.41;5282673;28;20039;-67
2023/05/18 04:29:50;;;;;;;10.63;4.07;;;;;;;6.25;100.00;102732.25;5279796;28;20036;-67
2023/05/18 04:32:25;;;;;;;10.60;3.70;;;;;;;6.28;100.00;102734.78;5282110;28;20047;-67
2023/05/18 04:34:57;;;;;;;11.93;4.40;;;;;;;6.38;100.00;102732.56;5281814;28;20504;-67
2023/05/18 04:37:28;;;;;;;9.85;4.38;;;;;;;6.36;100.00;102743.22;5279909;28;20020;-67
2023/05/18 04:40:01;;;;;;;7.75;3.80;;;;;;;6.41;100.00;102740.38;5287768;28;20032;-67
2023/05/18 04:42:35;;;;;;;11.82;4.43;;;;;;;6.46;100.00;102748.13;5278937;28;20032;-66
2023/05/18 04:45:07;;;;;;;7.57;4.00;;;;;;;6.49;100.00;102740.91;5281625;28;20032;-67
2023/05/18 04:47:39;;;;;;;15.23;5.15;;;;;;;6.58;100.00;102742.28;5287005;28;20082;-67
2023/05/18 04:50:10;;;;;;;10.40;4.95;;;;;;;6.56;100.00;102738.84;5282748;28;20027;-67
2023/05/18 04:52:47;;;;;;;10.63;4.53;;;;;;;6.64;100.00;102741.97;5274590;28;20036;-67
2023/05/18 04:55:27;;;;;;;12.85;4.80;;;;;;;6.67;100.00;102749.81;5283924;28;20394;-67
2023/05/18 04:58:00;;;;;;;14.13;4.18;;;;;;;6.74;100.00;102747.72;5288007;28;20500;-67
2023/05/18 05:00:31;;;;;;;14.00;4.75;;;;;;;6.73;100.00;102746.00;5283782;28;20028;-67
2023/05/18 05:03:02;;;;;;;13.38;4.60;;;;;;;6.77;100.00;102753.75;5278907;28;20374;-67
2023/05/18 05:05:34;;;;;;;12.38;4.75;;;;;;;6.78;100.00;102752.84;5283854;28;20020;-67
2023/05/18 05:08:05;;;;;;;7.75;4.35;;;;;;;6.84;100.00;102753.44;5288920;28;20029;-67
2023/05/18 05:10:36;;;;;;;12.13;5.15;;;;;;;6.89;100.00;102746.13;5279548;28;20055;-67
2023/05/18 05:13:08;;;;;;;12.02;5.32;;;;;;;7.01;100.00;102753.53;5281421;28;20032;-67
2023/05/18 05:15:40;;;;;;;14.38;5.93;;;;;;;7.05;100.00;102749.81;5280428;28;20028;-67
2023/05/18 05:18:11;;;;;;;13.85;6.22;;;;;;;7.12;100.00;102753.03;5284963;28;20035;-66
2023/05/18 05:20:42;;;;;;;14.23;5.40;;;;;;;7.18;100.00;102753.59;5284046;28;20081;-67
2023/05/18 05:23:13;;;;;;;14.55;6.03;;;;;;;7.19;100.00;102754.47;5282753;28;20115;-67
2023/05/18 05:25:45;;;;;;;18.30;5.72;;;;;;;7.18;100.00;102755.38;5279317;28;20023;-67
2023/05/18 05:28:16;;;;;;;13.85;5.03;;;;;;;7.36;100.00;102762.47;5283774;28;20097;-67
2023/05/18 05:30:47;;;;;;;12.40;5.80;;;;;;;7.36;100.00;102759.81;5278881;28;20671;-67
2023/05/18 05:33:19;;;;;;;13.38;5.97;;;;;;;7.42;100.00;102757.81;5287392;28;20023;-67
2023/05/18 05:35:50;;;;;;;13.80;5.80;;;;;;;7.51;100.00;102760.84;5285559;28;20024;-67
2023/05/18 05:38:21;;;;;;;13.38;4.85;;;;;;;7.49;100.00;102754.75;5281078;28;20028;-67
2023/05/18 05:40:52;;;;;;;18.85;6.15;;;;;;;7.51;100.00;102757.34;5283805;28;20385;-67
2023/05/18 05:43:24;;;;;;;12.65;5.28;;;;;;;7.58;100.00;102758.75;5287178;28;20025;-68
2023/05/18 05:45:55;;;;;;;13.13;4.90;;;;;;;7.55;100.00;102754.44;5284095;28;20405;-68
2023/05/18 05:48:26;;;;;;;15.20;5.68;;;;;;;7.56;100.00;102760.63;5284294;28;20465;-67
2023/05/18 05:50:57;;;;;;;13.50;5.90;;;;;;;7.74;100.00;102756.19;5287205;28;20080;-68
2023/05/18 05:53:29;;;;;;;14.55;6.68;;;;;;;7.71;100.00;102759.00;5284698;28;20175;-67
2023/05/18 05:56:00;;;;;;;15.07;5.78;;;;;;;7.81;100.00;102762.06;5278977;28;20032;-67
2023/05/18 05:58:31;;;;;;;11.10;5.20;;;;;;;7.89;100.00;102758.06;5287471;28;20024;-67
2023/05/18 06:01:03;;;;;;;14.35;5.07;;;;;;;8.00;100.00;102757.53;5281203;28;20024;-67
2023/05/18 06:03:34;;;;;;;10.75;4.85;;;;;;;8.09;100.00;102759.69;5282448;28;20043;-67
2023/05/18 06:06:06;;;;;;;13.25;5.07;;;;;;;8.19;100.00;102759.22;5289993;28;20038;-67
2023/05/18 06:08:37;;;;;;;9.68;4.65;;;;;;;8.19;100.00;102759.22;5290388;28;20028;-68
2023/05/18 06:11:09;;;;;;;10.43;4.32;;;;;;;8.24;100.00;102754.50;5285247;28;20036;-68
2023/05/18 06:13:40;;;;;;;9.02;4.50;;;;;;;8.36;100.00;102753.00;5280880;28;20485;-67
2023/05/18 06:16:11;;;;;;;13.65;4.68;;;;;;;8.44;100.00;102759.69;5280643;28;20035;-67
2023/05/18 06:18:43;;;;;;;16.38;5.85;;;;;;;8.52;100.00;102754.81;5290656;28;20324;-67
2023/05/18 06:21:14;;;;;;;9.85;4.88;;;;;;;8.74;100.00;102758.97;5287061;28;20839;-67
2023/05/18 06:23:46;;;;;;;10.98;4.47;;;;;;;8.78;100.00;102760.50;5286315;28;20031;-67
2023/05/18 06:26:17;;;;;;;11.07;4.70;;;;;;;8.88;100.00;102758.22;5276544;28;20044;-68
2023/05/18 06:28:48;;;;;;;13.52;6.80;;;;;;;8.98;100.00;102761.25;5280166;28;20028;-67
2023/05/18 06:31:20;;;;;;;13.43;4.97;;;;;;;9.00;100.00;102762.84;5280579;28;20032;-67
2023/05/18 06:33:51;;;;;;;11.65;5.50;;;;;;;9.11;100.00;102759.59;5290436;28;20035;-67
2023/05/18 06:36:22;;;;;;;8.07;4.32;;;;;;;9.21;100.00;102766.13;5292834;28;20036;-67
2023/05/18 06:38:53;;;;;;;10.80;4.43;;;;;;;9.37;100.00;102766.09;5293183;28;20020;-67
2023/05/18 06:41:25;;;;;;;11.98;4.20;;;;;;;9.53;100.00;102765.22;5285324;28;20461;-67
2023/05/18 06:43:59;;;;;;;14.25;4.70;;;;;;;9.82;100.00;102763.53;5282730;28;20028;-67
2023/05/18 06:46:30;;;;;;;15.98;5.30;;;;;;;9.98;100.00;102764.34;5288733;28;20099;-67
2023/05/18 06:49:01;;;;;;;10.88;5.18;;;;;;;10.25;100.00;102768.09;5289650;28;20045;-67
2023/05/18 06:51:33;;;;;;;10.60;4.80;;;;;;;10.47;100.00;102762.34;5290960;28;20534;-67
2023/05/18 06:54:04;;;;;;;11.20;4.90;;;;;;;10.79;100.00;102769.19;5283107;28;20488;-68
2023/05/18 06:56:35;;;;;;;13.98;5.00;;;;;;;10.97;100.00;102766.31;5284299;28;20457;-67
2023/05/18 06:59:07;;;;;;;13.02;4.60;;;;;;;11.20;100.00;102770.16;5288893;28;20385;-67
2023/05/18 07:01:38;;;;;;;12.43;4.40;;;;;;;11.41;100.00;102773.25;5283433;28;20051;-68
2023/05/18 07:04:09;;;;;;;11.52;4.35;;;;;;;11.69;100.00;102780.31;5283702;28;20031;-67
2023/05/18 07:06:40;;;;;;;14.18;4.22;;;;;;;11.96;100.00;102775.91;5281851;28;20482;-67
2023/05/18 07:09:12;;;;;;;10.38;3.78;;;;;;;12.17;100.00;102778.94;5282081;28;20048;-68
2023/05/18 07:11:44;;;;;;;11.10;4.18;;;;;;;12.51;100.00;102777.44;5283992;28;20025;-67
2023/05/18 07:14:15;;;;;;;10.00;3.90;;;;;;;12.75;100.00;102782.03;5291074;28;20039;-68
2023/05/18 07:16:46;;;;;;;12.40;4.22;;;;;;;12.80;100.00;102783.41;5288344;28;20032;-68
2023/05/18 07:19:18;;;;;;;12.02;4.22;;;;;;;13.08;100.00;102777.84;5281194;28;20107;-67
2023/05/18 07:21:49;;;;;;;12.57;4.15;;;;;;;12.97;100.00;102778.63;5285279;28;20028;-68
2023/05/18 07:24:20;;;;;;;11.50;3.70;;;;;;;13.16;100.00;102787.03;5280355;28;20028;-68
2023/05/18 07:26:52;;;;;;;9.88;4.30;;;;;;;13.32;100.00;102791.31;5284063;28;20112;-67
2023/05/18 07:29:23;;;;;;;11.85;4.28;;;;;;;13.33;100.00;102785.84;5280203;28;20103;-67
2023/05/18 07:31:54;;;;;;;10.77;4.28;;;;;;;13.51;100.00;102785.47;5284606;28;20493;-67
2023/05/18 07:34:26;;;;;;;10.13;3.47;;;;;;;13.72;100.00;102785.69;5284032;28;20122;-68
2023/05/18 07:36:57;;;;;;;8.93;4.15;;;;;;;13.88;100.00;102793.41;5284642;28;20393;-68
2023/05/18 07:39:28;;;;;;;12.57;3.80;;;;;;;14.14;100.00;102797.63;5286128;28;20421;-68
2023/05/18 07:42:00;;;;;;;11.73;4.40;;;;;;;14.48;100.00;102789.66;5281260;28;20115;-67
2023/05/18 07:44:32;;;;;;;9.75;3.78;;;;;;;14.43;100.00;102791.84;5285276;28;20548;-67
2023/05/18 07:47:03;;;;;;;11.82;3.85;;;;;;;14.73;100.00;102793.13;5287484;28;20024;-68
2023/05/18 07:49:34;;;;;;;6.53;3.70;;;;;;;15.01;100.00;102797.13;5283250;28;20035;-68
2023/05/18 07:52:07;;;;;;;7.22;3.72;;;;;;;15.09;100.00;102800.06;5286978;28;20043;-68
2023/05/18 07:54:38;;;;;;;12.63;3.88;;;;;;;15.18;100.00;102801.13;5282943;28;20028;-68
2023/05/18 07:57:09;;;;;;;9.32;4.00;;;;;;;15.30;100.00;102805.50;5282644;28;20374;-68
2023/05/18 07:59:40;;;;;;;8.90;3.72;;;;;;;15.35;100.00;102804.25;5284282;28;20493;-67
2023/05/18 08:02:12;;;;;;;11.50;4.13;;;;;;;15.70;100.00;102806.72;5281379;28;20508;-67
2023/05/18 08:04:43;;;;;;;8.20;3.83;;;;;;;15.78;100.00;102804.28;5288411;28;20485;-68
2023/05/18 08:07:17;;;;;;;10.68;3.50;;;;;;;16.23;100.00;102813.94;5288195;28;20036;-68
2023/05/18 08:09:48;;;;;;;11.20;3.85;;;;;;;16.54;100.00;102817.53;5286872;28;20075;-67
2023/05/18 08:12:19;;;;;;;12.50;4.68;;;;;;;16.70;100.00;102800.88;5283947;28;20051;-67
2023/05/18 08:14:51;;;;;;;12.70;4.05;;;;;;;16.88;100.00;102808.34;5283131;28;20031;-68
2023/05/18 08:17:22;;;;;;;8.00;3.38;;;;;;;16.76;100.00;102808.41;5285093;28;20048;-67
2023/05/18 08:19:54;;;;;;;8.60;3.70;;;;;;;16.78;100.00;102814.53;5288209;28;20460;-67
2023/05/18 08:22:25;;;;;;;10.68;3.75;;;;;;;16.79;100.00;102801.91;5287273;28;20021;-67
2023/05/18 08:24:59;;;;;;;8.20;3.65;;;;;;;16.59;100.00;102809.06;5290586;28;20024;-67
2023/05/18 08:27:30;;;;;;;9.70;3.35;;;;;;;16.61;100.00;102807.91;5293696;28;20039;-68
2023/05/18 08:30:02;;;;;;;8.25;3.60;;;;;;;16.58;100.00;102801.94;5287671;28;20520;-67
2023/05/18 08:32:35;;;;;;;10.95;3.88;;;;;;;16.20;100.00;102812.38;5281672;28;20033;-67
2023/05/18 08:35:08;;;;;;;8.48;3.35;;;;;;;16.08;100.00;102799.97;5282563;28;20433;-67
2023/05/18 08:37:40;;;;;;;13.25;3.38;;;;;;;16.23;100.00;102806.72;5283565;28;20460;-67
2023/05/18 08:40:12;;;;;;;10.60;3.75;;;;;;;16.10;100.00;102800.69;5284047;28;20103;-67
2023/05/18 08:43:07;;;;;;;10.98;3.63;;;;;;;16.28;100.00;102784.78;5285567;28;20016;-67
2023/05/18 08:45:45;;;;;;;17.20;7.10;;;;;;;16.68;100.00;102775.06;5282913;28;20036;-67
2023/05/18 08:48:17;;;;;;;9.82;3.72;;;;;;;16.98;100.00;102779.59;5278292;28;20571;-67
2023/05/18 08:50:50;;;;;;;11.00;3.53;;;;;;;17.23;100.00;102780.06;5286742;28;20060;-67
2023/05/18 08:53:23;;;;;;;9.73;4.38;;;;;;;17.71;100.00;102768.47;5283933;28;20055;-67
2023/05/18 08:55:56;;;;;;;12.55;3.25;;;;;;;17.96;100.00;102769.75;5286640;28;20488;-68
2023/05/18 08:58:42;;;;;;;6.82;3.17;;;;;;;17.96;100.00;102772.44;5292007;28;20056;-67
2023/05/18 09:01:14;;;;;;;10.80;4.00;;;;;;;17.94;100.00;102775.28;5277600;28;20046;-67
2023/05/18 09:03:49;;;;;;;12.88;3.42;;;;;;;18.18;100.00;102768.56;5293640;28;20055;-67
2023/05/18 09:06:23;;;;;;;9.00;3.50;;;;;;;18.13;93.33;102769.00;5287549;28;20044;-67
2023/05/18 09:08:58;;;;;;;8.68;3.28;;;;;;;17.77;94.70;102757.06;5281346;28;20036;-67
2023/05/18 09:11:32;;;;;;;9.30;3.10;;;;;;;17.38;93.07;102762.47;5286166;28;20043;-67
2023/05/18 09:14:03;;;;;;;13.73;3.00;;;;;;;17.67;94.25;102773.28;5278302;28;20062;-67
2023/05/18 09:16:35;;;;;;;10.10;3.15;;;;;;;17.44;93.73;102764.59;5280001;28;20422;-67
2023/05/18 09:19:06;;;;;;;10.45;4.20;;;;;;;17.42;92.22;102755.81;5286847;28;20020;-68
2023/05/18 09:21:37;;;;;;;8.20;2.90;;;;;;;17.93;94.16;102767.31;5284565;28;20028;-67
2023/05/18 09:24:10;;;;;;;11.18;3.42;;;;;;;17.82;94.72;102764.75;5289970;28;20020;-68
2023/05/18 09:26:42;;;;;;;11.15;3.50;;;;;;;17.51;91.82;102764.91;5288708;28;20393;-68
2023/05/18 09:29:17;;;;;;;11.77;3.83;;;;;;;17.72;92.42;102771.03;5282227;28;20048;-68
2023/05/18 09:31:49;;;;;;;13.57;4.45;;;;;;;18.00;91.72;102754.09;5282342;28;20067;-68
2023/05/18 09:34:21;;;;;;;9.63;3.30;;;;;;;18.14;90.39;102759.03;5278418;28;20033;-69
2023/05/18 09:36:52;;;;;;;10.50;3.15;;;;;;;18.13;88.89;102752.78;5280622;28;20127;-68
2023/05/18 09:39:23;;;;;;;10.07;3.28;;;;;;;18.16;88.69;102750.78;5281858;28;20443;-68
2023/05/18 09:41:58;;;;;;;12.88;3.17;;;;;;;18.91;88.42;102762.47;5290621;28;20036;-69
2023/05/18 09:44:31;;;;;;;9.45;3.08;;;;;;;18.61;79.52;102755.47;5291934;28;20032;-68
2023/05/18 09:47:10;;;;;;;10.32;3.40;;;;;;;18.57;81.49;102759.50;5287317;28;20032;-68
2023/05/18 09:49:42;;;;;;;9.27;3.28;;;;;;;18.92;82.61;102752.50;5276451;28;20024;-68
2023/05/18 09:52:13;;;;;;;7.88;2.83;;;;;;;19.33;82.35;102763.75;5279517;28;20020;-68
2023/05/18 09:54:56;;;;;;;14.98;3.58;;;;;;;19.90;81.30;102767.00;5276835;28;20553;-68
2023/05/18 09:57:27;;;;;;;8.18;2.55;;;;;;;20.29;77.05;102753.03;5282516;28;20034;-69
2023/05/18 10:00:08;;;;;;;7.90;2.72;;;;;;;20.33;75.49;102751.69;5283294;28;20024;-69
2023/05/18 10:02:41;;;;;;;7.60;3.42;;;;;;;20.44;73.57;102750.59;5286188;28;20468;-69
2023/05/18 10:05:23;;;;;;;8.93;3.22;;;;;;;20.56;71.80;102745.72;5285344;28;20042;-68
2023/05/18 10:07:56;;;;;;;13.57;3.25;;;;;;;20.72;68.95;102739.53;5287162;28;20033;-68
2023/05/18 10:10:28;;;;;;;7.57;2.70;;;;;;;20.95;67.03;102747.94;5282505;28;20385;-69
2023/05/18 10:13:00;;;;;;;11.43;3.33;;;;;;;21.09;67.30;102736.44;5285043;28;20096;-68
2023/05/18 10:15:32;;;;;;;9.07;2.88;;;;;;;21.61;68.32;102729.91;5291129;28;20035;-68
2023/05/18 10:18:06;;;;;;;7.97;3.17;;;;;;;21.90;65.36;102742.13;5288331;28;20028;-69
2023/05/18 10:20:38;;;;;;;7.80;2.88;;;;;;;22.08;62.05;102739.19;5292924;28;20035;-69
2023/05/18 10:23:10;;;;;;;10.68;3.33;;;;;;;22.30;61.26;102732.22;5291482;28;20063;-70
2023/05/18 10:25:44;;;;;;;10.20;3.35;;;;;;;22.58;59.52;102738.06;5283983;28;20039;-69
2023/05/18 10:28:27;;;;;;;8.43;2.83;;;;;;;23.20;61.03;102731.78;5284295;28;20562;-69
2023/05/18 10:30:59;;;;;;;9.93;3.97;;;;;;;23.15;58.14;102738.78;5293760;28;20481;-71
2023/05/18 10:33:30;;;;;;;10.77;3.45;;;;;;;23.01;56.09;102732.22;5289431;28;20028;-69
2023/05/18 10:36:03;;;;;;;11.05;3.40;;;;;;;23.11;56.07;102726.59;5283997;28;20028;-69
2023/05/18 10:38:42;;;;;;;8.88;3.35;;;;;;;22.80;53.41;102724.69;5284055;28;20029;-69
2023/05/18 10:41:14;;;;;;;8.18;3.65;;;;;;;22.90;53.01;102733.47;5286070;28;20141;-71
2023/05/18 10:43:46;;;;;;;6.45;2.80;;;;;;;22.68;55.01;102726.09;5291097;28;20016;-72
2023/05/18 10:46:20;;;;;;;11.40;3.63;;;;;;;22.68;54.44;102718.78;5293064;28;20028;-72
2023/05/18 10:48:52;;;;;;;7.93;3.22;;;;;;;22.13;52.98;102706.91;5292220;28;20078;-71
2023/05/18 10:51:25;;;;;;;7.53;3.10;;;;;;;21.78;52.74;102719.03;5288902;28;20035;-71
2023/05/18 10:54:10;;;;;;;7.05;3.00;;;;;;;21.82;55.92;102714.94;5284868;28;20682;-71
2023/05/18 10:56:46;;;;;;;7.23;2.80;;;;;;;21.18;54.39;102715.59;5287421;28;20027;-71
2023/05/18 10:59:19;;;;;;;9.30;3.47;;;;;;;21.12;55.10;102718.97;5286449;28;20028;-71
2023/05/18 11:01:52;;;;;;;9.02;3.47;;;;;;;21.06;56.04;102711.53;5288578;28;20067;-71
2023/05/18 11:04:31;;;;;;;9.65;4.05;;;;;;;20.75;55.33;102712.09;5289974;28;20580;-71
2023/05/18 11:07:03;;;;;;;9.60;3.90;;;;;;;20.72;55.06;102707.88;5293999;28;20024;-71
2023/05/18 11:09:34;;;;;;;10.90;3.42;;;;;;;21.31;56.13;102709.69;5285537;28;20047;-71
2023/05/18 11:12:10;;;;;;;10.73;3.33;;;;;;;21.18;55.07;102703.88;5285209;28;20435;-71
2023/05/18 11:14:53;;;;;;;8.70;3.15;;;;;;;21.55;57.14;102705.31;5284065;28;20032;-71
2023/05/18 11:17:28;;;;;;;9.98;3.60;;;;;;;21.13;56.10;102705.25;5280650;28;20024;-71
2023/05/18 11:20:08;;;;;;;8.23;3.20;;;;;;;21.45;55.69;102709.00;5284750;28;20047;-71
2023/05/18 11:23:01;;;;;;;8.25;3.03;;;;;;;21.85;55.54;102696.44;5288830;28;20028;-70
2023/05/18 11:25:33;;;;;;;11.15;3.28;;;;;;;21.27;54.00;102703.75;5288460;28;20024;-71
2023/05/18 11:28:06;;;;;;;7.47;3.40;;;;;;;20.81;50.88;102699.75;5281313;28;20378;-71
2023/05/18 11:30:40;;;;;;;8.23;3.00;;;;;;;20.58;53.69;102703.03;5280482;28;20060;-71
2023/05/18 11:33:23;;;;;;;7.90;3.45;;;;;;;20.77;55.59;102696.53;5280272;28;20067;-70
2023/05/18 11:36:10;;;;;;;8.02;3.60;;;;;;;20.73;56.43;102697.88;5287790;28;20021;-71
2023/05/18 11:38:44;;;;;;;8.65;3.75;;;;;;;20.54;54.88;102694.38;5288219;28;20157;-71
2023/05/18 11:41:43;;;;;;;8.23;3.42;;;;;;;20.62;57.74;102693.59;5283903;28;20124;-71
2023/05/18 11:44:17;;;;;;;11.68;3.58;;;;;;;20.44;57.43;102688.25;5284258;28;20090;-71
2023/05/18 11:46:57;;;;;;;8.73;3.75;;;;;;;20.62;58.90;102682.75;5282501;28;20024;-70